Time;durP1;ratioP1;P1;durP2;ratioP2;P2;SDS_P1;SDS_P2;PMS_P1;PMS_P2;Temp;Humidity;BMP_temperature;BMP_pressure;BME280_temperature;BME280_humidity;BME280_pressure;Samples;Min_cycle;Max_cycle;Signal;HPM_P1;HPM_P2
2023/05/17 02:53:41;;;;;;;14.73;6.07;;;7.90;99.90;;;;;;1436946;23;20384;-88
2023/05/17 02:56:13;;;;;;;17.60;6.22;;;7.80;99.90;;;;;;4957347;29;20127;-96
2023/05/17 02:58:46;;;;;;;19.42;6.13;;;7.70;99.90;;;;;;4958720;29;20039;-95
2023/05/17 03:01:12;;;;;;;16.67;6.50;;;7.60;99.90;;;;;;4939694;29;20027;-95
2023/05/17 03:03:40;;;;;;;17.08;6.60;;;7.60;99.90;;;;;;4956880;29;20031;-95
2023/05/17 03:06:15;;;;;;;18.77;6.70;;;7.60;99.90;;;;;;4944419;28;20040;-96
2023/05/17 03:08:42;;;;;;;20.63;7.32;;;7.60;99.90;;;;;;4925253;29;20020;-96
2023/05/17 03:11:08;;;;;;;22.42;7.05;;;7.60;99.90;;;;;;4929139;29;20059;-95
2023/05/17 03:13:37;;;;;;;19.30;6.85;;;7.60;99.90;;;;;;4941902;29;20020;-96
2023/05/17 03:16:05;;;;;;;20.23;6.28;;;7.60;99.90;;;;;;5234183;23;20039;-94
2023/05/17 03:18:31;;;;;;;17.95;6.60;;;7.60;99.90;;;;;;4976591;28;20079;-93
2023/05/17 03:20:56;;;;;;;14.07;5.75;;;7.50;99.90;;;;;;4977063;29;20035;-93
2023/05/17 03:23:22;;;;;;;18.20;6.10;;;7.40;99.90;;;;;;4960098;29;20031;-95
2023/05/17 03:25:49;;;;;;;13.13;6.57;;;7.30;99.90;;;;;;4960728;29;20036;-94
2023/05/17 03:28:16;;;;;;;16.55;7.10;;;7.40;99.90;;;;;;4959642;29;20031;-93
2023/05/17 03:30:42;;;;;;;23.48;7.00;;;7.40;99.90;;;;;;4960966;29;20062;-95
2023/05/17 03:33:08;;;;;;;14.75;6.80;;;7.40;99.90;;;;;;4960730;29;20031;-94
2023/05/17 03:35:34;;;;;;;18.23;6.40;;;7.40;99.90;;;;;;4959967;29;20037;-94
2023/05/17 03:38:00;;;;;;;16.38;7.22;;;7.50;99.90;;;;;;4977548;29;20047;-95
2023/05/17 03:40:26;;;;;;;22.15;8.27;;;7.50;99.90;;;;;;4960584;29;20027;-95
2023/05/17 03:42:53;;;;;;;14.75;6.78;;;7.50;99.90;;;;;;4960390;29;20027;-94
2023/05/17 03:45:18;;;;;;;18.08;7.10;;;7.50;99.90;;;;;;4945203;29;20103;-96
2023/05/17 03:47:44;;;;;;;24.15;9.13;;;7.50;99.90;;;;;;4960488;29;20038;-95
2023/05/17 03:50:10;;;;;;;13.90;7.78;;;7.50;99.90;;;;;;4963624;28;20030;-95
2023/05/17 03:52:40;;;;;;;22.13;6.95;;;7.50;99.90;;;;;;4949015;28;20035;-95
2023/05/17 03:55:06;;;;;;;17.43;7.70;;;7.60;99.90;;;;;;4964751;29;20099;-95
2023/05/17 03:57:32;;;;;;;22.75;7.90;;;7.60;99.90;;;;;;4979736;29;20031;-96
2023/05/17 04:00:00;;;;;;;99.85;34.05;;;7.60;99.90;;;;;;4978753;29;20038;-95
2023/05/17 04:02:26;;;;;;;18.38;8.10;;;7.60;99.90;;;;;;4946884;29;20039;-95
2023/05/17 04:04:57;;;;;;;20.52;8.25;;;7.60;99.90;;;;;;4962722;29;20035;-95
2023/05/17 04:07:23;;;;;;;19.65;6.93;;;7.60;99.90;;;;;;4962401;28;20090;-93
2023/05/17 04:09:50;;;;;;;18.13;7.22;;;7.60;99.90;;;;;;4978444;29;20034;-95
2023/05/17 04:17:29;;;;;;;14.98;7.55;;;7.50;99.90;;;;;;5231131;23;20043;-94
2023/05/17 04:19:57;;;;;;;18.95;7.95;;;7.40;99.90;;;;;;4963308;29;20043;-95
2023/05/17 04:22:24;;;;;;;20.63;7.63;;;7.40;99.90;;;;;;4963960;28;20018;-95
2023/05/17 04:32:39;;;;;;;19.73;8.13;;;7.40;99.90;;;;;;4957083;29;20055;-94
2023/05/17 04:35:15;;;;;;;18.20;8.30;;;7.40;99.90;;;;;;4942911;29;20035;-95
2023/05/17 04:37:42;;;;;;;16.48;7.70;;;7.40;99.90;;;;;;4958447;29;20031;-96
2023/05/17 04:40:09;;;;;;;15.48;7.20;;;7.40;99.90;;;;;;4941138;29;20114;-96
2023/05/17 04:42:35;;;;;;;22.88;7.47;;;7.40;99.90;;;;;;4927286;29;20064;-96
2023/05/17 04:45:01;;;;;;;12.55;6.80;;;7.30;99.90;;;;;;4942741;29;20020;-95
2023/05/17 04:47:27;;;;;;;19.83;7.10;;;7.30;99.90;;;;;;4940882;29;20079;-96
2023/05/17 04:49:55;;;;;;;20.98;7.18;;;7.20;99.90;;;;;;4940547;29;20090;-96
2023/05/17 04:52:20;;;;;;;16.98;7.70;;;7.20;99.90;;;;;;4939163;29;20035;-95
2023/05/17 04:54:50;;;;;;;21.05;7.45;;;7.20;99.90;;;;;;4954080;29;20052;-95
2023/05/17 04:57:16;;;;;;;18.65;7.22;;;7.20;99.90;;;;;;4938202;29;20123;-95
2023/05/17 04:59:42;;;;;;;19.50;7.28;;;7.20;99.90;;;;;;4939056;29;20028;-95
2023/05/17 05:02:18;;;;;;;14.77;7.22;;;7.30;99.90;;;;;;4938717;29;20050;-95
2023/05/17 05:04:45;;;;;;;20.15;7.35;;;7.30;99.90;;;;;;4926881;29;20103;-95
2023/05/17 05:07:12;;;;;;;22.55;10.40;;;7.40;99.90;;;;;;4959608;28;20047;-95
2023/05/17 05:09:43;;;;;;;20.02;7.88;;;7.30;99.90;;;;;;4941344;29;20030;-94
2023/05/17 05:12:11;;;;;;;17.35;7.28;;;7.40;99.90;;;;;;4994471;23;20073;-95
2023/05/17 05:14:37;;;;;;;20.13;7.68;;;7.40;99.90;;;;;;4962223;28;20025;-95
2023/05/17 05:17:03;;;;;;;26.42;8.07;;;7.50;99.90;;;;;;5110921;23;20111;-94
2023/05/17 05:19:30;;;;;;;18.42;7.75;;;7.50;99.90;;;;;;4997614;28;20039;-96
2023/05/17 05:21:59;;;;;;;15.52;7.32;;;7.60;99.90;;;;;;4994713;28;20031;-93
2023/05/17 05:24:25;;;;;;;16.67;8.13;;;7.60;99.90;;;;;;4977570;28;20023;-93
2023/05/17 05:26:51;;;;;;;22.88;8.35;;;7.60;99.90;;;;;;4976145;28;20546;-94
2023/05/17 05:29:18;;;;;;;17.95;7.65;;;7.60;99.90;;;;;;4991063;28;20038;-96
2023/05/17 05:31:45;;;;;;;15.57;7.32;;;7.60;99.90;;;;;;4977655;28;20041;-93
2023/05/17 05:34:12;;;;;;;14.52;6.93;;;7.60;99.90;;;;;;4976367;28;20007;-93
2023/05/17 05:36:38;;;;;;;17.45;7.60;;;7.60;99.90;;;;;;4993815;28;20046;-93
2023/05/17 05:39:04;;;;;;;15.55;7.32;;;7.70;99.90;;;;;;4994268;28;20031;-94
2023/05/17 05:41:31;;;;;;;13.82;6.78;;;7.70;99.90;;;;;;4977336;28;20050;-95
2023/05/17 05:43:57;;;;;;;17.30;7.25;;;7.80;99.90;;;;;;4993937;28;20493;-94
2023/05/17 05:46:23;;;;;;;16.50;7.15;;;7.70;99.90;;;;;;4976592;28;20110;-94
2023/05/17 05:48:52;;;;;;;21.35;6.93;;;7.70;99.90;;;;;;4976778;28;20031;-95
2023/05/17 05:51:18;;;;;;;18.08;7.93;;;7.70;99.90;;;;;;4976652;28;20026;-94
2023/05/17 05:53:44;;;;;;;20.45;8.00;;;7.70;99.90;;;;;;4975887;28;20058;-94
2023/05/17 05:56:10;;;;;;;17.70;7.43;;;7.70;99.90;;;;;;4976513;28;20106;-93
2023/05/17 05:58:36;;;;;;;15.95;7.72;;;7.80;99.90;;;;;;4991894;28;20022;-95
2023/05/17 06:01:03;;;;;;;23.85;7.80;;;7.80;99.90;;;;;;4974631;28;20082;-95
2023/05/17 06:03:28;;;;;;;18.02;6.95;;;7.90;99.90;;;;;;4975825;28;20031;-95
2023/05/17 06:05:57;;;;;;;17.17;7.32;;;8.00;99.90;;;;;;4993944;28;20027;-96
2023/05/17 06:10:58;;;;;;;16.40;7.05;;;8.20;99.90;;;;;;5045324;23;20059;-95
2023/05/17 06:13:24;;;;;;;14.90;7.28;;;8.30;99.90;;;;;;4993428;28;20034;-95
2023/05/17 06:15:50;;;;;;;18.73;6.47;;;8.40;99.90;;;;;;4979755;28;20038;-95
2023/05/17 06:18:16;;;;;;;13.55;7.38;;;8.50;99.90;;;;;;5032782;23;20074;-96
2023/05/17 06:20:43;;;;;;;20.13;8.05;;;8.60;99.90;;;;;;4977280;29;20031;-95
2023/05/17 06:23:11;;;;;;;30.15;9.77;;;8.70;99.90;;;;;;4976130;29;20031;-95
2023/05/17 06:25:38;;;;;;;19.70;7.75;;;8.70;99.90;;;;;;4976240;29;20023;-95
2023/05/17 06:28:08;;;;;;;16.80;7.50;;;8.80;99.90;;;;;;4979786;28;20035;-94
2023/05/17 06:30:39;;;;;;;23.33;8.38;;;8.90;99.90;;;;;;4979271;29;20039;-95
2023/05/17 06:33:06;;;;;;;22.13;8.07;;;9.00;99.90;;;;;;4979950;28;20505;-94
2023/05/17 06:35:48;;;;;;;17.88;8.07;;;9.00;99.90;;;;;;4982119;28;20047;-95
2023/05/17 06:41:07;;;;;;;21.65;7.80;;;9.20;99.90;;;;;;5043068;23;20245;-94
2023/05/17 06:51:42;;;;;;;17.00;6.95;;;9.60;99.90;;;;;;5030576;23;20061;-95
2023/05/17 06:54:11;;;;;;;14.35;7.53;;;9.70;99.90;;;;;;4983327;28;20077;-96
2023/05/17 06:56:37;;;;;;;16.08;7.07;;;9.80;99.90;;;;;;4982836;28;20066;-95
2023/05/17 06:59:03;;;;;;;17.92;8.07;;;9.90;99.90;;;;;;4983140;28;20019;-94
2023/05/17 07:01:29;;;;;;;19.38;6.55;;;10.00;99.90;;;;;;4983418;28;20058;-95
2023/05/17 07:03:56;;;;;;;20.15;7.30;;;10.10;99.90;;;;;;4997678;28;20038;-95
2023/05/17 07:06:21;;;;;;;14.05;7.22;;;10.20;99.90;;;;;;4976529;28;20031;-96
2023/05/17 07:08:47;;;;;;;23.20;7.10;;;10.30;99.90;;;;;;4984000;28;20066;-96
2023/05/17 07:11:16;;;;;;;15.80;7.10;;;10.40;99.90;;;;;;4984163;28;20050;-95
2023/05/17 07:16:30;;;;;;;21.48;6.97;;;10.70;99.90;;;;;;5586141;23;20059;-94
2023/05/17 07:18:56;;;;;;;16.77;6.75;;;10.80;99.90;;;;;;4978366;28;20062;-95
2023/05/17 07:21:25;;;;;;;17.55;5.93;;;10.90;99.90;;;;;;5000366;28;20019;-94
2023/05/17 07:23:59;;;;;;;21.60;5.57;;;11.00;99.90;;;;;;4978524;28;20083;-96
2023/05/17 07:26:25;;;;;;;15.35;4.85;;;11.10;99.90;;;;;;5481599;23;20065;-96
2023/05/17 07:28:51;;;;;;;16.90;6.00;;;11.20;99.90;;;;;;4962807;28;20062;-93
2023/05/17 07:31:17;;;;;;;23.33;5.78;;;11.20;99.90;;;;;;4965464;28;20126;-96
2023/05/17 07:33:46;;;;;;;14.50;4.60;;;11.40;99.90;;;;;;4999926;28;20031;-96
2023/05/17 07:36:12;;;;;;;18.98;4.75;;;11.60;99.90;;;;;;4983279;28;20046;-95
2023/05/17 07:38:37;;;;;;;19.92;5.03;;;11.70;99.90;;;;;;4983404;28;20111;-96
2023/05/17 07:41:08;;;;;;;13.35;4.35;;;11.80;99.90;;;;;;4982396;28;20015;-94
2023/05/17 07:54:26;;;;;;;20.23;4.45;;;12.10;99.90;;;;;;5562990;23;20050;-94
2023/05/17 08:02:10;;;;;;;13.07;3.53;;;12.20;99.90;;;;;;5106333;23;20134;-96
2023/05/17 08:04:38;;;;;;;17.08;4.45;;;12.30;99.90;;;;;;4976707;28;20030;-96
2023/05/17 08:07:04;;;;;;;21.90;4.50;;;12.30;99.90;;;;;;4983041;28;20046;-96
2023/05/17 08:09:33;;;;;;;16.20;3.72;;;12.30;99.90;;;;;;4981306;28;20058;-95
2023/05/17 08:12:00;;;;;;;14.68;4.07;;;12.40;99.90;;;;;;4993828;28;20027;-96
2023/05/17 08:14:26;;;;;;;10.25;3.30;;;12.60;99.90;;;;;;4990278;28;20141;-95
2023/05/17 08:16:55;;;;;;;12.93;4.18;;;12.80;99.90;;;;;;4974898;28;20034;-96
2023/05/17 08:19:21;;;;;;;10.55;4.10;;;12.90;99.90;;;;;;4992769;28;20011;-95
2023/05/17 08:21:55;;;;;;;20.88;5.30;;;13.00;99.90;;;;;;4984262;28;20492;-96
2023/05/17 08:27:07;;;;;;;12.90;4.68;;;13.20;99.90;;;;;;4976557;28;20062;-96
2023/05/17 08:57:29;;;;;;;10.70;4.32;;;14.40;99.90;;;;;;816751;23;20381;-87
2023/05/17 08:59:57;;;;;;;8.68;3.47;;;14.70;99.90;;;;;;4952716;29;20064;-94
2023/05/17 09:02:30;;;;;;;8.15;3.13;;;14.90;99.90;;;;;;4958114;29;20051;-95
2023/05/17 09:04:59;;;;;;;10.05;3.40;;;14.90;99.90;;;;;;4958288;29;20089;-95
2023/05/17 09:07:27;;;;;;;9.07;3.40;;;15.00;99.90;;;;;;4942331;29;20038;-96
2023/05/17 09:09:57;;;;;;;9.23;3.53;;;15.10;99.90;;;;;;4958194;29;20174;-95
2023/05/17 09:12:48;;;;;;;12.43;3.40;;;15.10;99.90;;;;;;5080292;23;20051;-95
2023/05/17 09:15:25;;;;;;;8.43;2.90;;;15.20;99.40;;;;;;4964687;29;20620;-96
2023/05/17 09:18:02;;;;;;;8.65;3.03;;;15.40;99.10;;;;;;4980115;28;20014;-95
2023/05/17 09:55:26;;;;;;;8.02;2.88;;;16.50;91.10;;;;;;5716681;23;20047;-94
2023/05/17 10:19:22;;;;;;;6.95;2.28;;;16.70;88.90;;;;;;5178944;23;20098;-96
2023/05/17 10:21:56;;;;;;;8.07;3.30;;;16.80;87.40;;;;;;5377042;23;20043;-94
2023/05/17 10:49:36;;;;;;;7.40;3.42;;;17.60;82.50;;;;;;5994578;23;21219;31
2023/05/17 10:52:20;;;;;;;7.28;2.85;;;17.70;81.70;;;;;;4983653;23;20074;-96
2023/05/17 10:54:48;;;;;;;7.05;3.08;;;17.70;81.40;;;;;;4982319;28;20034;-96
2023/05/17 10:59:59;;;;;;;10.18;3.17;;;17.70;80.60;;;;;;4958287;26;20051;-94
2023/05/17 11:02:27;;;;;;;9.85;3.17;;;17.70;80.50;;;;;;4958560;29;20034;-95
2023/05/17 11:05:01;;;;;;;6.38;2.97;;;17.80;80.40;;;;;;4957972;29;20047;-96
2023/05/17 11:07:33;;;;;;;7.50;2.97;;;17.80;80.30;;;;;;4943862;29;20032;-96
2023/05/17 11:10:02;;;;;;;7.57;2.72;;;18.00;79.90;;;;;;4941582;29;20028;-96
2023/05/17 11:12:38;;;;;;;8.07;2.58;;;18.20;79.20;;;;;;4940854;29;20035;-96
2023/05/17 11:15:14;;;;;;;9.52;2.88;;;18.40;78.10;;;;;;4934331;29;20055;-96
2023/05/17 11:17:43;;;;;;;5.95;2.50;;;18.50;77.20;;;;;;4935395;29;20056;-96
2023/05/17 11:20:15;;;;;;;8.73;2.33;;;18.50;76.50;;;;;;4954524;29;20056;-96
2023/05/17 11:23:05;;;;;;;6.35;2.58;;;18.50;76.10;;;;;;4958690;29;20091;-96
2023/05/17 11:25:51;;;;;;;7.03;2.63;;;18.40;75.30;;;;;;4942774;29;20044;-96
2023/05/17 13:27:34;;;;;;;10.45;3.25;;;17.40;75.60;;;;;;4008635;23;20320;-92
2023/05/17 13:30:03;;;;;;;7.30;2.67;;;17.40;75.80;;;;;;4957113;29;20074;-95
2023/05/17 13:32:30;;;;;;;8.50;2.78;;;17.50;75.90;;;;;;4960000;29;20059;-94
2023/05/17 14:29:10;;;;;;;9.98;3.13;;;16.80;79.80;;;;;;5719373;23;20464;-91
2023/05/17 14:31:37;;;;;;;12.73;2.70;;;16.80;80.00;;;;;;4970760;29;20015;-90
2023/05/17 17:20:11;;;;;;;4.03;1.95;;;18.30;74.90;;;;;;5969363;23;21661;-95
2023/05/17 19:26:57;;;;;;;5.80;2.55;;;15.60;82.70;;;;;;4958125;29;20051;-96
2023/05/17 19:29:25;;;;;;;5.43;2.65;;;15.60;83.10;;;;;;4943935;29;20103;-93
2023/05/17 19:31:54;;;;;;;9.60;3.05;;;15.60;83.50;;;;;;4945783;29;20027;-94
2023/05/17 19:34:21;;;;;;;7.47;3.08;;;15.60;84.00;;;;;;4927551;29;20024;-94
2023/05/17 19:36:49;;;;;;;7.40;2.95;;;15.60;84.30;;;;;;4940109;29;20039;-95
2023/05/17 19:39:18;;;;;;;5.35;2.90;;;15.50;84.50;;;;;;4952242;29;20058;-95
2023/05/17 19:41:44;;;;;;;7.90;2.75;;;15.50;84.90;;;;;;4920159;29;20036;-95
2023/05/17 19:44:10;;;;;;;6.43;2.72;;;15.50;85.20;;;;;;4945262;29;20036;-96
2023/05/17 19:46:36;;;;;;;4.57;2.45;;;15.40;85.50;;;;;;4931357;29;20035;-96
2023/05/17 19:49:02;;;;;;;6.03;2.70;;;15.40;85.80;;;;;;4931303;29;20088;-96
2023/05/17 19:51:30;;;;;;;5.53;2.70;;;15.30;86.10;;;;;;4939212;29;20050;-96
2023/05/17 19:53:56;;;;;;;5.05;3.10;;;15.30;86.50;;;;;;4928598;28;20042;-94
2023/05/17 19:56:23;;;;;;;9.70;2.95;;;15.20;86.80;;;;;;4933424;28;20040;-94
2023/05/17 19:58:52;;;;;;;5.47;2.53;;;15.20;87.00;;;;;;4945098;28;20059;-94
2023/05/17 20:01:20;;;;;;;5.23;2.87;;;15.10;87.10;;;;;;4931906;28;20030;-95
2023/05/17 20:03:46;;;;;;;8.15;2.88;;;15.10;87.40;;;;;;4931908;29;20052;-95
2023/05/17 20:06:13;;;;;;;9.52;2.60;;;15.00;87.60;;;;;;4954789;28;20042;-95
2023/05/17 20:08:41;;;;;;;7.60;2.47;;;15.00;87.90;;;;;;4947175;29;20024;-95
2023/05/17 20:11:07;;;;;;;8.90;2.30;;;14.90;88.10;;;;;;4929048;29;20046;-95
2023/05/17 20:13:39;;;;;;;5.53;2.15;;;14.90;88.30;;;;;;4926671;29;20027;-95
2023/05/17 20:16:29;;;;;;;5.13;2.50;;;14.80;88.20;;;;;;4927382;29;20074;-94
2023/05/17 20:18:56;;;;;;;4.13;2.42;;;14.70;88.30;;;;;;4955837;29;20027;-96
2023/05/17 20:21:23;;;;;;;6.70;2.58;;;14.60;88.50;;;;;;4938720;29;20024;-96
2023/05/17 20:23:59;;;;;;;7.53;2.30;;;14.50;88.80;;;;;;4940670;29;20058;-96
2023/05/17 20:26:25;;;;;;;5.85;2.50;;;14.50;89.00;;;;;;4927811;29;20044;-96
2023/05/17 20:28:58;;;;;;;7.00;2.42;;;14.40;89.20;;;;;;4927605;29;20028;-95
2023/05/17 20:31:24;;;;;;;10.98;2.65;;;14.40;89.50;;;;;;4927028;29;20027;-95
2023/05/17 20:33:50;;;;;;;8.05;2.90;;;14.30;90.00;;;;;;4937118;29;20052;-95
2023/05/17 20:36:16;;;;;;;4.53;2.42;;;14.20;90.10;;;;;;4919820;29;20035;-95
2023/05/17 20:38:45;;;;;;;9.57;2.72;;;14.10;90.30;;;;;;4927814;29;20035;-94
2023/05/17 20:41:13;;;;;;;4.93;2.85;;;14.10;90.50;;;;;;4935861;29;20040;-96
2023/05/17 20:43:48;;;;;;;6.03;2.67;;;13.90;90.60;;;;;;4930967;29;20067;-95
2023/05/17 20:46:14;;;;;;;5.63;2.65;;;13.90;90.90;;;;;;4955560;29;20024;-95
2023/05/17 20:48:42;;;;;;;4.63;2.38;;;13.80;91.00;;;;;;4939474;29;20036;-95
2023/05/17 20:51:11;;;;;;;6.70;2.75;;;13.70;91.20;;;;;;4944842;29;20046;-94
2023/05/17 20:53:38;;;;;;;6.55;2.58;;;13.70;91.40;;;;;;4926995;29;20027;-96
2023/05/17 20:56:05;;;;;;;5.05;2.95;;;13.60;91.50;;;;;;4944035;29;20070;-96
2023/05/17 20:58:31;;;;;;;5.32;2.50;;;13.60;91.70;;;;;;4941308;29;20027;-95
2023/05/17 21:00:58;;;;;;;6.53;3.03;;;13.60;91.90;;;;;;4924877;29;20047;-95
2023/05/17 21:03:26;;;;;;;5.80;2.63;;;13.50;92.00;;;;;;4924484;29;20020;-95
2023/05/17 21:05:54;;;;;;;5.95;2.90;;;13.40;92.30;;;;;;4942461;29;20030;-95
2023/05/17 21:08:20;;;;;;;8.50;2.83;;;13.30;92.60;;;;;;4932961;29;20028;-94
2023/05/17 21:10:46;;;;;;;4.57;2.90;;;13.30;92.90;;;;;;4949258;29;20042;-95
2023/05/17 21:13:13;;;;;;;6.30;2.80;;;13.30;93.20;;;;;;4951270;29;20053;-96
2023/05/17 21:15:40;;;;;;;3.92;2.50;;;13.20;93.40;;;;;;4923365;29;20035;-95
2023/05/17 21:18:11;;;;;;;6.35;2.53;;;13.20;93.70;;;;;;4906931;29;20043;-96
2023/05/17 21:20:37;;;;;;;5.68;2.67;;;13.10;93.90;;;;;;4938126;29;20020;-96
2023/05/17 21:23:04;;;;;;;12.60;2.70;;;13.10;94.20;;;;;;4926075;29;20059;-95
2023/05/17 21:25:30;;;;;;;5.70;2.83;;;13.00;94.40;;;;;;4923547;29;20063;-95
2023/05/17 21:27:55;;;;;;;7.25;3.20;;;12.90;94.70;;;;;;4922019;29;20024;-95
2023/05/17 21:30:22;;;;;;;5.75;2.60;;;12.90;95.10;;;;;;4938285;29;20074;-96
2023/05/17 21:32:48;;;;;;;4.75;2.58;;;12.80;95.30;;;;;;4918746;29;20032;-96
2023/05/17 21:35:14;;;;;;;4.20;2.60;;;12.80;95.50;;;;;;4938139;29;20648;-96
2023/05/17 21:37:47;;;;;;;5.70;2.70;;;12.80;95.70;;;;;;4922700;29;20031;-95
2023/05/17 21:40:13;;;;;;;5.78;3.03;;;12.80;95.90;;;;;;4908068;29;20035;-93
2023/05/17 21:42:39;;;;;;;6.78;3.30;;;12.80;96.00;;;;;;4952087;29;20024;-96
2023/05/17 21:45:07;;;;;;;7.68;3.40;;;12.80;96.20;;;;;;4921921;29;20023;-96
2023/05/17 21:47:34;;;;;;;8.57;3.33;;;12.80;96.40;;;;;;4920435;29;20053;-96
2023/05/17 21:50:02;;;;;;;6.72;3.28;;;12.80;96.60;;;;;;4920847;29;20363;-95
2023/05/17 21:52:27;;;;;;;8.00;3.22;;;12.70;96.90;;;;;;4919678;29;20020;-95
2023/05/17 21:54:55;;;;;;;6.43;2.70;;;12.70;97.10;;;;;;4919468;29;20031;-95
2023/05/17 21:57:21;;;;;;;5.82;3.22;;;12.70;97.30;;;;;;4919424;29;20046;-95
2023/05/17 21:59:49;;;;;;;13.48;3.50;;;12.80;97.60;;;;;;4936681;29;20106;-95
2023/05/17 22:02:15;;;;;;;7.07;2.75;;;12.70;98.00;;;;;;4936691;29;20331;-96
2023/05/17 22:04:42;;;;;;;5.72;3.20;;;12.70;97.80;;;;;;4919546;29;20032;-96
2023/05/17 22:07:09;;;;;;;10.60;3.10;;;12.70;98.00;;;;;;4919943;29;20386;-94
2023/05/17 22:09:35;;;;;;;10.73;3.20;;;12.70;98.10;;;;;;4937004;29;20030;-95
2023/05/17 22:12:03;;;;;;;12.88;3.13;;;12.70;98.30;;;;;;4922753;29;20028;-95
2023/05/17 22:14:31;;;;;;;6.03;2.75;;;12.60;98.50;;;;;;4936098;29;20024;-95
2023/05/17 22:16:58;;;;;;;7.25;3.17;;;12.60;98.60;;;;;;4926745;29;20051;-95
2023/05/17 22:19:24;;;;;;;7.65;3.25;;;12.60;98.80;;;;;;4921175;29;20577;-95
2023/05/17 22:21:50;;;;;;;6.00;3.40;;;12.50;98.90;;;;;;4936723;29;20024;-94
2023/05/17 22:24:16;;;;;;;5.45;3.13;;;12.50;99.20;;;;;;4919787;29;20051;-95
2023/05/17 22:26:42;;;;;;;4.80;2.78;;;12.50;99.40;;;;;;4920365;29;20059;-94
2023/05/17 22:29:07;;;;;;;7.95;2.65;;;12.50;99.50;;;;;;4920877;29;20024;-95
2023/05/17 22:31:36;;;;;;;7.90;3.25;;;12.40;99.60;;;;;;4921166;29;20032;-96
2023/05/17 22:34:03;;;;;;;6.32;2.97;;;12.30;99.90;;;;;;4923529;29;20032;-95
2023/05/17 22:36:31;;;;;;;5.78;2.95;;;12.30;99.90;;;;;;4924596;29;20051;-95
2023/05/17 22:38:57;;;;;;;7.18;2.90;;;12.30;99.90;;;;;;4920046;29;20024;-95
2023/05/17 22:41:23;;;;;;;7.28;2.80;;;12.30;99.90;;;;;;4920561;29;20031;-96
2023/05/17 22:43:49;;;;;;;5.68;3.30;;;12.20;99.90;;;;;;4920240;29;20066;-95
2023/05/17 22:46:14;;;;;;;9.65;3.25;;;12.20;99.90;;;;;;4919759;29;20039;-95
2023/05/17 22:48:41;;;;;;;8.18;3.60;;;12.20;99.90;;;;;;4920365;29;20386;-96
2023/05/17 22:51:07;;;;;;;4.38;2.75;;;12.10;99.90;;;;;;4920122;29;20115;-95
2023/05/17 22:53:33;;;;;;;9.38;3.15;;;12.10;99.90;;;;;;4919817;29;20052;-95
2023/05/17 22:55:58;;;;;;;7.22;3.05;;;12.10;99.90;;;;;;4920299;29;20205;-94
2023/05/17 22:58:24;;;;;;;6.00;2.88;;;12.10;99.90;;;;;;4927001;29;20051;-95
2023/05/17 23:00:50;;;;;;;6.95;3.30;;;12.00;99.90;;;;;;4931870;29;20039;-95
2023/05/17 23:03:17;;;;;;;7.50;3.60;;;12.00;99.90;;;;;;4928488;29;20091;-96
2023/05/17 23:05:44;;;;;;;8.00;3.30;;;11.90;99.90;;;;;;4925817;29;20516;-96
2023/05/17 23:08:12;;;;;;;9.75;3.70;;;11.90;99.90;;;;;;4924891;29;20107;-96
2023/05/17 23:10:40;;;;;;;6.93;3.35;;;11.80;99.90;;;;;;4925069;29;20034;-95
2023/05/17 23:13:05;;;;;;;4.47;3.17;;;11.80;99.90;;;;;;4926213;29;20030;-96
2023/05/17 23:15:33;;;;;;;8.63;3.60;;;11.80;99.90;;;;;;4931504;29;20110;-95
2023/05/17 23:17:59;;;;;;;6.47;3.47;;;11.80;99.90;;;;;;4925661;29;20036;-95
2023/05/17 23:20:25;;;;;;;6.72;3.17;;;11.80;99.90;;;;;;4924823;29;20035;-96
2023/05/17 23:22:52;;;;;;;8.75;3.55;;;11.70;99.90;;;;;;4941871;29;20028;-95
2023/05/17 23:25:19;;;;;;;6.13;3.22;;;11.70;99.90;;;;;;4922293;29;20071;-95
2023/05/17 23:27:47;;;;;;;6.97;3.00;;;11.70;99.90;;;;;;4938223;29;20032;-96
2023/05/17 23:30:14;;;;;;;6.57;4.32;;;11.70;99.90;;;;;;4940171;29;20039;-96
2023/05/17 23:32:41;;;;;;;8.93;3.63;;;11.70;99.90;;;;;;4944990;29;20055;-95
2023/05/17 23:35:09;;;;;;;5.05;3.40;;;11.60;99.90;;;;;;4943354;29;20023;-96
2023/05/17 23:37:35;;;;;;;6.80;3.30;;;11.60;99.90;;;;;;4944214;28;20055;-96
2023/05/17 23:40:05;;;;;;;5.70;3.28;;;11.60;99.90;;;;;;4944368;28;20042;-95
2023/05/17 23:42:31;;;;;;;7.78;3.97;;;11.60;99.90;;;;;;4940693;29;20042;-96
2023/05/17 23:45:01;;;;;;;6.20;3.40;;;11.50;99.90;;;;;;4935104;29;20027;-95
2023/05/17 23:47:27;;;;;;;6.07;3.50;;;11.50;99.90;;;;;;4935793;29;20028;-95
2023/05/17 23:49:54;;;;;;;6.68;3.75;;;11.40;99.90;;;;;;4928570;29;20082;-95
2023/05/17 23:52:22;;;;;;;10.80;4.10;;;11.40;99.90;;;;;;4925027;29;20027;-96
2023/05/17 23:54:48;;;;;;;6.85;3.78;;;11.40;99.90;;;;;;4924297;29;20027;-96
2023/05/17 23:57:14;;;;;;;6.25;3.30;;;11.40;99.90;;;;;;4924765;29;20042;-94
2023/05/17 23:59:40;;;;;;;6.88;3.03;;;11.30;99.90;;;;;;4925738;29;20028;-95
